• Join FlightAware (Why Join?)
  • Login
  • US Flag 
04:02AM EDT


 

Airport Tracker/Info


-or-


 

Live Flight TrackerFlight Track Log ✈ N1673T ✈ 29-Jul-2013 ✈ KCVX - KGRB

Flight Track Log - Related Links

Times and Time Zones

All times are in EDT time to prevent confusion due to time zone crossing. See the N1673T flight status page for this flight to view local times or setup timezone preferences in your user account.

Time Position Orientation Groundspeed Altitude Reporting Facility
EDT Latitude Longitude Course Direction KTS MPH feet Rate Location/Type
05:37PM 45.2853 -85.3622 247° West 119 137 2,800  Level Minneapolis Center
05:38PM 45.2728 -85.4019 246° West 112 129 3,800 780 Climbing Minneapolis Center
05:39PM 45.2594 -85.4339 239° Southwest 114 131 4,500 960 Climbing Minneapolis Center
05:40PM 45.2422 -85.4839 244° Southwest 117 135 5,900 1,140 Climbing Minneapolis Center
05:41PM 45.2308 -85.5292 250° West 118 136 6,900 960 Climbing Minneapolis Center
05:42PM 45.2156 -85.5480 247° West  Level FlightAware Approximate
05:42PM 45.2156 -85.5867 249° West 124 143 8,000  Level Minneapolis Center
05:43PM 45.2019 -85.6344 248° West 128 147 9,000 900 Climbing Minneapolis Center
05:44PM 45.1894 -85.6811 249° West 128 147 9,900 780 Climbing Minneapolis Center
05:45PM 45.1756 -85.7317 249° West 132 152 10,700 720 Climbing Minneapolis Center
05:46PM 45.1603 -85.7858 248° West 142 163 11,500 540 Climbing Minneapolis Center
05:47PM 45.1450 -85.8425 249° West 150 173 11,900 180 Climbing Minneapolis Center
05:48PM 45.1250 -85.9197 250° West 168 193 11,900  Level Minneapolis Center
05:49PM 45.1067 -85.9856 248° West 178 205 12,000  Climbing Minneapolis Center
05:50PM 45.0886 -86.0506 249° West 180 207 11,900 -60 Descending Minneapolis Center
05:51PM 45.0708 -86.1156 249° West 179 206 11,900  Level Minneapolis Center
05:52PM 45.0453 -86.2072 248° West 181 208 11,900  Level Minneapolis Center
05:53PM 45.0269 -86.2725 248° West 180 207 11,900  Level Minneapolis Center
05:54PM 45.0083 -86.3378 248° West 180 207 11,900  Level Minneapolis Center
05:55PM 44.9900 -86.4036 249° West 182 209 11,900  Level Minneapolis Center
05:57PM 44.9711 -86.4681 248° West 179 206 11,900  Level Minneapolis Center
05:58PM 44.9486 -86.5472 248° West 180 207 11,900  Level Minneapolis Center
05:59PM 44.9258 -86.6242 247° West 179 206 11,900  Level Minneapolis Center
06:00PM 44.9078 -86.6894 249° West 179 206 11,900  Level Minneapolis Center
06:01PM 44.8894 -86.7544 248° West 179 206 11,900 -120 Level Minneapolis Center
06:02PM 44.8669 -86.8350 249° West 184 212 11,700 -420 Descending Minneapolis Center
06:03PM 44.8425 -86.9169 247° West 189 217 11,100 -480 Descending Minneapolis Center
06:04PM 44.8236 -86.9861 249° West 190 219 10,700 -540 Descending Minneapolis Center
06:05PM 44.8031 -87.0536 247° West 189 217 10,100 -600 Descending Minneapolis Center
06:06PM 44.7844 -87.1236 249° West 190 219 9,500 -660 Descending Minneapolis Center
06:07PM 44.7631 -87.1931 247° West 193 222 8,700 -720 Descending Minneapolis Center
06:09PM 44.7578 -87.2631 264° West 179 206 7,900 -840 Descending Minneapolis Center
06:10PM 44.7394 -87.3547 254° West 177 204 7,000 -660 Descending Minneapolis Center
06:11PM 44.7217 -87.4200 249° West 180 207 6,400 -540 Descending Minneapolis Center
06:12PM 44.6964 -87.4928 244° Southwest 174 200 5,900 -540 Descending Minneapolis Center
06:13PM 44.6764 -87.5556 246° West 176 203 5,300 -540 Descending Minneapolis Center
06:14PM 44.6564 -87.6161 245° Southwest 173 199 4,800 -480 Descending Minneapolis Center
06:15PM 44.6319 -87.6867 244° Southwest 169 194 4,300 -360 Descending Minneapolis Center
06:16PM 44.6119 -87.7467 245° Southwest 171 197 4,100 -300 Descending Minneapolis Center
06:17PM 44.5933 -87.8064 246° West 170 196 3,700 -360 Descending Minneapolis Center
06:18PM 44.5733 -87.8642 244° Southwest 168 193 3,400 -420 Descending Minneapolis Center
06:19PM 44.5494 -87.9247 241° Southwest 167 192 2,900 -360 Descending Minneapolis Center
06:20PM 44.5314 -87.9772 244° Southwest 167 192 2,700 -240 Descending Minneapolis Center
06:22PM 44.5036 -88.0564 244° Southwest  Level FlightAware Approximate
06:29PM 44.4833 -88.1167 245° Southwest  Level FlightAware Approximate